EDT,Max TemperatureF,Mean TemperatureF,Min TemperatureF,Max Dew PointF,MeanDew PointF,Min DewpointF,Max Humidity, Mean Humidity, Min Humidity, Max Sea Level PressureIn, Mean Sea Level PressureIn, Min Sea Level PressureIn, Max VisibilityMiles, Mean VisibilityMiles, Min VisibilityMiles, Max Wind SpeedMPH, Mean Wind SpeedMPH, Max Gust SpeedMPH,PrecipitationIn, CloudCover, Events, WindDirDegrees
2013-3-1,56,44,31,29,27,25,72,54,35,30.00,29.95,29.88,10,10,10,20,7,25,0.00,2,,287
2013-3-2,49,42,35,33,29,24,75,62,49,29.98,29.93,29.89,10,10,10,20,10,24,T,6,,275
2013-3-3,50,41,31,25,22,19,69,50,31,30.06,29.99,29.94,10,10,10,18,7,33,0.00,3,,296
2013-3-4,62,43,24,33,22,16,81,49,17,30.22,30.13,30.06,10,10,10,10,4,14,0.00,0,,294
2013-3-5,70,52,34,56,43,31,85,64,43,30.11,29.92,29.70,10,9,1,26,10,36,0.24,5,Rain,216
2013-3-6,53,45,36,31,24,18,64,49,34,30.15,29.97,29.83,10,10,10,36,17,46,0.00,2,,300
2013-3-7,62,44,25,34,29,24,92,61,29,30.27,30.20,30.14,10,9,3,12,2,15,0.00,1,,288
2013-3-8,64,48,31,32,26,19,96,58,19,30.32,30.26,30.19,10,10,7,14,4,25,0.00,0,,14
2013-3-9,67,48,28,37,30,26,92,57,22,30.36,30.29,30.23,10,9,4,12,2,15,0.00,0,,116
2013-3-10,73,55,37,48,40,35,92,61,29,30.29,30.22,30.14,10,6,2,14,5,23,0.00,0,,132
2013-3-11,75,59,42,54,47,40,89,67,44,30.17,30.01,29.84,10,10,10,23,8,29,0.01,3,,159
2013-3-12,70,61,52,58,49,33,93,62,31,30.02,29.87,29.79,10,9,3,17,10,23,0.20,5,Rain,264
2013-3-13,64,54,43,31,26,17,58,38,17,30.20,30.10,30.04,10,10,10,28,13,35,0.00,0,,303
2013-3-14,58,44,30,28,21,16,69,45,21,30.35,30.26,30.19,10,10,10,17,7,24,0.00,0,,331
2013-3-15,73,52,30,38,30,21,78,52,25,30.25,30.14,30.01,10,10,10,17,6,24,0.00,0,,245
2013-3-16,80,65,50,43,40,36,66,44,21,30.04,29.96,29.87,10,10,10,23,10,32,0.00,0,,236
2013-3-17,76,66,56,54,49,45,77,57,36,30.03,29.98,29.94,10,10,10,18,9,24,0.00,0,,234
2013-3-18,70,59,47,59,53,47,93,78,63,30.06,29.95,29.81,10,8,2,46,3,58,0.49,7,Rain-Thunderstorm,49
2013-3-19,75,63,50,52,42,18,100,56,12,30.04,29.94,29.86,10,7,0,20,9,23,T,4,Fog-Rain,310
2013-3-20,63,51,38,34,25,15,64,41,17,30.14,30.00,29.87,10,10,10,12,5,16,0.00,2,,307
2013-3-21,56,47,37,26,17,8,59,37,15,29.98,29.90,29.85,10,10,10,24,12,30,0.00,0,,295
2013-3-22,52,43,33,37,23,17,71,50,29,30.11,30.06,29.98,10,10,10,9,3,12,0.00,6,,133
2013-3-23,58,52,45,51,43,36,93,79,65,30.06,29.97,29.88,10,8,2,15,5,17,0.36,8,Rain-Thunderstorm,68
2013-3-24,51,49,47,49,47,44,100,93,86,29.88,29.66,29.57,10,7,1,20,6,23,1.26,8,Rain-Thunderstorm,39
2013-3-25,53,46,38,46,28,18,93,60,26,30.03,29.80,29.64,10,10,6,32,18,45,0.00,4,,288
2013-3-26,51,42,32,25,23,22,64,50,36,30.24,30.09,30.01,10,10,10,22,12,29,0.00,2,,290
2013-3-27,60,44,28,30,24,21,78,51,23,30.32,30.26,30.20,10,10,6,16,5,24,0.00,0,,301
2013-3-28,63,46,28,32,25,20,85,52,19,30.35,30.28,30.20,10,10,10,20,4,24,0.00,0,,349
2013-3-29,68,49,29,40,28,18,92,54,16,30.37,30.29,30.21,10,10,8,12,2,16,0.00,1,,349
2013-3-30,75,62,48,48,43,36,80,56,31,30.23,30.13,30.05,10,10,10,12,4,14,0.00,4,,188
2013-3-31,80,70,59,61,53,47,84,62,39,30.04,29.96,29.88,10,9,2,28,10,33,0.55,7,Rain,228